createdAt,value
2018-08-30T00:01:39.399Z,10.20
2018-08-30T00:04:08.636Z,10.20
2018-08-30T00:06:37.832Z,10.00
2018-08-30T00:09:07.449Z,10.00
2018-08-30T00:11:36.612Z,9.90
2018-08-30T00:14:05.834Z,10.00
2018-08-30T00:16:35.027Z,9.80
2018-08-30T00:19:04.622Z,9.90
2018-08-30T00:21:33.890Z,9.90
2018-08-30T00:24:03.252Z,9.90
2018-08-30T00:26:32.757Z,9.90
2018-08-30T00:29:01.765Z,9.80
2018-08-30T00:31:31.284Z,9.70
2018-08-30T00:34:00.508Z,9.70
2018-08-30T00:36:29.901Z,9.80
2018-08-30T00:38:59.315Z,9.80
2018-08-30T00:41:28.923Z,9.70
2018-08-30T00:43:58.308Z,9.70
2018-08-30T00:46:27.760Z,9.80
2018-08-30T00:48:57.269Z,9.60
2018-08-30T00:51:26.808Z,9.60
2018-08-30T00:53:56.108Z,9.60
2018-08-30T00:56:25.540Z,9.60
2018-08-30T00:58:55.015Z,9.50
2018-08-30T01:01:24.230Z,9.30
2018-08-30T01:03:53.645Z,9.40
2018-08-30T01:06:23.044Z,9.40
2018-08-30T01:08:52.348Z,9.30
2018-08-30T01:11:21.690Z,9.40
2018-08-30T01:13:50.999Z,9.50
2018-08-30T01:16:20.259Z,9.50
2018-08-30T01:18:49.584Z,9.50
2018-08-30T01:21:18.707Z,9.40
2018-08-30T01:23:48.144Z,9.30
2018-08-30T01:26:17.866Z,9.30
2018-08-30T01:28:47.187Z,9.40
2018-08-30T01:31:17.040Z,9.20
2018-08-30T01:33:46.340Z,9.10
2018-08-30T01:36:15.704Z,9.30
2018-08-30T01:38:44.852Z,9.30
2018-08-30T01:41:14.464Z,9.20
2018-08-30T01:43:43.636Z,9.20
2018-08-30T01:46:12.971Z,9.30
2018-08-30T01:48:42.241Z,9.20
2018-08-30T01:51:11.417Z,9.00
2018-08-30T01:53:41.003Z,9.00
2018-08-30T01:56:10.117Z,9.10
2018-08-30T01:58:39.422Z,9.10
2018-08-30T02:01:08.904Z,9.10
2018-08-30T02:03:38.063Z,8.90
2018-08-30T02:06:07.515Z,8.80
2018-08-30T02:08:36.996Z,8.80
2018-08-30T02:11:06.127Z,8.80
2018-08-30T02:13:35.430Z,8.90
2018-08-30T02:16:04.624Z,8.80
2018-08-30T02:18:34.029Z,8.80
2018-08-30T02:21:03.515Z,8.70
2018-08-30T02:23:32.664Z,8.80
2018-08-30T02:26:02.173Z,8.80
2018-08-30T02:28:31.408Z,8.90
2018-08-30T02:31:00.738Z,8.90
2018-08-30T02:33:30.165Z,8.80
2018-08-30T02:35:59.436Z,8.90
2018-08-30T02:38:28.824Z,8.80
2018-08-30T02:40:58.068Z,8.90
2018-08-30T02:43:27.583Z,8.70
2018-08-30T02:45:57.480Z,8.70
2018-08-30T02:48:26.967Z,8.80
2018-08-30T02:50:56.488Z,8.80
2018-08-30T02:53:25.864Z,8.80
2018-08-30T02:55:54.972Z,8.90
2018-08-30T02:58:24.230Z,8.90
2018-08-30T03:00:53.216Z,8.90
2018-08-30T03:03:22.640Z,8.80
2018-08-30T03:05:51.564Z,8.80
2018-08-30T03:08:21.241Z,8.80
2018-08-30T03:10:50.315Z,8.80
2018-08-30T03:13:19.657Z,8.70
2018-08-30T03:15:48.948Z,8.40
2018-08-30T03:18:18.061Z,8.50
2018-08-30T03:20:47.392Z,8.50
2018-08-30T03:23:16.620Z,8.50
2018-08-30T03:25:45.901Z,8.40
2018-08-30T03:28:15.427Z,8.50
2018-08-30T03:30:44.751Z,8.60
2018-08-30T03:33:14.036Z,8.60
2018-08-30T03:35:43.493Z,8.60
2018-08-30T03:38:12.965Z,8.50
2018-08-30T03:40:42.753Z,8.60
2018-08-30T03:43:12.821Z,8.40
2018-08-30T03:45:42.013Z,8.40
2018-08-30T03:48:11.232Z,8.30
2018-08-30T03:50:40.664Z,8.40
2018-08-30T03:53:10.285Z,8.50
2018-08-30T03:55:39.516Z,8.50
2018-08-30T03:58:08.852Z,8.50
2018-08-30T04:00:37.980Z,8.50
2018-08-30T04:03:07.303Z,8.60
2018-08-30T04:05:36.545Z,8.40
2018-08-30T04:08:05.878Z,8.40
2018-08-30T04:10:35.313Z,8.40
2018-08-30T04:13:04.926Z,8.50
2018-08-30T04:15:34.372Z,8.40
2018-08-30T04:18:03.609Z,8.40
2018-08-30T04:20:33.261Z,8.50
2018-08-30T04:23:02.594Z,8.50
2018-08-30T04:25:31.755Z,8.60
2018-08-30T04:28:01.032Z,8.60
2018-08-30T04:30:30.382Z,8.60
2018-08-30T04:32:59.704Z,8.60
2018-08-30T04:35:28.777Z,8.70
2018-08-30T04:37:58.026Z,8.70
2018-08-30T04:40:27.499Z,8.70
2018-08-30T04:42:56.711Z,8.70
2018-08-30T04:45:26.180Z,8.80
2018-08-30T04:47:55.309Z,8.90
2018-08-30T04:50:24.782Z,8.80
2018-08-30T04:52:54.127Z,9.00
2018-08-30T04:55:23.702Z,9.00
2018-08-30T04:57:52.973Z,8.90
2018-08-30T05:00:22.359Z,8.90
2018-08-30T05:02:51.718Z,8.90
2018-08-30T05:05:20.997Z,8.90
2018-08-30T05:07:50.864Z,9.00
2018-08-30T05:10:20.442Z,9.10
2018-08-30T05:12:49.728Z,9.10
2018-08-30T05:15:18.853Z,9.20
2018-08-30T05:17:48.033Z,9.40
2018-08-30T05:20:17.319Z,9.40
2018-08-30T05:22:46.710Z,9.40
2018-08-30T05:25:15.927Z,9.60
2018-08-30T05:27:45.049Z,9.80
2018-08-30T05:30:14.576Z,10.10
2018-08-30T05:32:43.697Z,10.20
2018-08-30T05:35:13.131Z,10.30
2018-08-30T05:37:42.481Z,10.40
2018-08-30T05:40:12.160Z,10.60
2018-08-30T05:42:41.324Z,10.70
2018-08-30T05:45:10.612Z,10.90
2018-08-30T05:47:40.012Z,11.10
2018-08-30T05:50:09.585Z,11.20
2018-08-30T05:52:38.976Z,11.30
2018-08-30T05:55:08.164Z,11.30
2018-08-30T05:57:37.315Z,11.40
2018-08-30T06:00:06.665Z,11.60
2018-08-30T06:02:36.265Z,11.80
2018-08-30T06:05:06.049Z,11.90
2018-08-30T06:07:35.229Z,12.00
2018-08-30T06:10:04.581Z,12.20
2018-08-30T06:12:34.001Z,12.30
2018-08-30T06:15:03.751Z,12.50
2018-08-30T06:17:33.511Z,12.60
2018-08-30T06:20:03.022Z,12.80
2018-08-30T06:22:32.604Z,13.00
2018-08-30T06:25:01.965Z,13.10
2018-08-30T06:27:31.215Z,13.30
2018-08-30T06:30:01.064Z,13.50
2018-08-30T06:32:30.379Z,13.60
2018-08-30T06:34:59.490Z,13.70
2018-08-30T06:37:29.758Z,13.80
2018-08-30T06:39:59.684Z,13.80
2018-08-30T06:42:29.856Z,13.90
2018-08-30T06:44:58.917Z,14.10
2018-08-30T06:47:28.297Z,14.30
2018-08-30T06:49:57.982Z,14.40
2018-08-30T06:52:27.212Z,14.60
2018-08-30T06:54:56.827Z,14.70
2018-08-30T06:57:26.293Z,14.90
2018-08-30T06:59:55.547Z,15.10
2018-08-30T07:02:24.948Z,15.30
2018-08-30T07:04:55.934Z,15.50
2018-08-30T07:07:25.572Z,15.60
2018-08-30T07:09:54.629Z,15.80
2018-08-30T07:12:24.337Z,15.90
2018-08-30T07:14:55.009Z,16.10
2018-08-30T07:17:24.444Z,16.40
2018-08-30T07:19:53.733Z,16.60
2018-08-30T07:22:23.006Z,16.70
2018-08-30T07:24:52.199Z,17.00
2018-08-30T07:27:21.916Z,17.10
2018-08-30T07:29:51.136Z,17.30
2018-08-30T07:32:20.306Z,17.50
2018-08-30T07:34:49.685Z,17.60
2018-08-30T07:37:18.686Z,17.80
2018-08-30T07:39:48.147Z,18.00
2018-08-30T07:42:17.745Z,18.30
2018-08-30T07:44:47.356Z,18.50
2018-08-30T07:47:16.719Z,18.70
2018-08-30T07:49:46.227Z,18.70
2018-08-30T07:52:15.446Z,19.20
2018-08-30T07:54:45.068Z,19.40
2018-08-30T07:57:14.432Z,19.50
2018-08-30T07:59:43.606Z,19.80
2018-08-30T08:02:12.972Z,20.00
2018-08-30T08:04:42.174Z,20.10
2018-08-30T08:07:11.547Z,20.10
2018-08-30T08:09:40.751Z,20.10
2018-08-30T08:12:10.230Z,20.40
2018-08-30T08:14:39.601Z,20.70
2018-08-30T08:17:09.479Z,20.90
2018-08-30T08:19:39.352Z,20.90
2018-08-30T08:22:08.877Z,21.00
2018-08-30T08:24:37.946Z,21.30
2018-08-30T08:27:07.117Z,21.50
2018-08-30T08:29:36.337Z,21.90
2018-08-30T08:32:05.533Z,22.10
2018-08-30T08:34:34.738Z,22.40
2018-08-30T08:37:03.894Z,22.40
2018-08-30T08:39:33.012Z,22.50
2018-08-30T08:42:02.103Z,22.70
2018-08-30T08:44:31.348Z,22.90
2018-08-30T08:47:00.747Z,23.10
2018-08-30T08:49:30.185Z,23.40
2018-08-30T08:51:59.665Z,23.60
2018-08-30T08:54:29.158Z,23.90
2018-08-30T08:56:58.437Z,23.70
2018-08-30T08:59:27.807Z,24.00
2018-08-30T09:01:57.064Z,24.20
2018-08-30T09:04:26.474Z,24.00
2018-08-30T09:06:55.940Z,24.40
2018-08-30T09:09:25.240Z,24.50
2018-08-30T09:11:54.704Z,24.60
2018-08-30T09:14:24.033Z,25.10
2018-08-30T09:16:53.395Z,25.00
2018-08-30T09:19:22.511Z,24.60
2018-08-30T09:21:52.049Z,25.20
2018-08-30T09:24:21.346Z,25.00
2018-08-30T09:26:50.717Z,24.90
2018-08-30T09:29:19.815Z,24.60
2018-08-30T09:31:49.144Z,24.80
2018-08-30T09:34:18.231Z,24.80
2018-08-30T09:36:47.425Z,24.90
2018-08-30T09:39:16.769Z,25.10
2018-08-30T09:41:46.008Z,25.40
2018-08-30T09:44:15.726Z,25.80
2018-08-30T09:46:45.009Z,25.70
2018-08-30T09:49:14.337Z,25.70
2018-08-30T09:51:43.641Z,25.10
2018-08-30T09:54:12.813Z,25.40
2018-08-30T09:56:42.262Z,25.10
2018-08-30T09:59:11.488Z,25.80
2018-08-30T10:01:46.047Z,26.30
2018-08-30T10:04:16.333Z,26.00
2018-08-30T10:06:46.100Z,26.40
2018-08-30T10:09:15.474Z,25.50
2018-08-30T10:11:44.822Z,24.90
2018-08-30T10:14:14.129Z,25.10
2018-08-30T10:16:43.476Z,25.40
2018-08-30T10:19:13.017Z,25.70
2018-08-30T10:21:43.110Z,25.00
2018-08-30T10:24:12.295Z,24.80
2018-08-30T10:26:41.451Z,25.10
2018-08-30T10:29:11.063Z,25.60
2018-08-30T10:31:40.120Z,25.60
2018-08-30T10:34:09.306Z,26.20
2018-08-30T10:36:38.837Z,25.60
2018-08-30T10:39:08.332Z,25.40
2018-08-30T10:41:37.515Z,25.50
2018-08-30T10:44:06.912Z,25.30
2018-08-30T10:46:36.046Z,25.10
2018-08-30T10:49:05.298Z,25.40
2018-08-30T10:51:34.455Z,25.40
2018-08-30T10:54:03.377Z,24.60
2018-08-30T10:56:32.833Z,24.60
2018-08-30T10:59:02.116Z,24.90
2018-08-30T11:01:31.458Z,24.90
2018-08-30T11:04:00.569Z,25.70
2018-08-30T11:06:29.815Z,26.60
2018-08-30T11:08:59.055Z,26.40
2018-08-30T11:11:28.790Z,26.00
2018-08-30T11:13:58.964Z,26.30
2018-08-30T11:16:28.446Z,26.70
2018-08-30T11:18:57.863Z,26.20
2018-08-30T11:21:27.261Z,26.40
2018-08-30T11:23:56.419Z,26.50
2018-08-30T11:26:25.930Z,26.20
2018-08-30T11:28:55.644Z,25.60
2018-08-30T11:31:25.395Z,25.50
2018-08-30T11:33:55.162Z,25.30
2018-08-30T11:36:25.027Z,24.90
2018-08-30T11:38:54.253Z,25.00
2018-08-30T11:41:23.589Z,24.90
2018-08-30T11:43:52.972Z,25.20
2018-08-30T11:46:22.528Z,25.50
2018-08-30T11:48:51.643Z,25.60
2018-08-30T11:51:20.900Z,25.80
2018-08-30T11:53:50.116Z,26.70
2018-08-30T11:56:19.642Z,26.30
2018-08-30T11:58:49.020Z,25.50
2018-08-30T12:01:18.277Z,25.20
2018-08-30T12:03:47.578Z,25.10
2018-08-30T12:06:16.975Z,25.20
2018-08-30T12:08:46.157Z,25.20
2018-08-30T12:11:15.355Z,24.90
2018-08-30T12:13:45.074Z,24.90
2018-08-30T12:16:14.271Z,24.70
2018-08-30T12:18:43.926Z,24.50
2018-08-30T12:21:13.193Z,25.20
2018-08-30T12:23:42.602Z,25.40
2018-08-30T12:26:11.925Z,25.40
2018-08-30T12:28:41.464Z,25.30
2018-08-30T12:31:10.627Z,25.20
2018-08-30T12:33:39.866Z,25.00
2018-08-30T12:36:09.423Z,25.20
2018-08-30T12:38:39.005Z,25.10
2018-08-30T12:41:08.390Z,25.00
2018-08-30T12:43:38.000Z,25.00
2018-08-30T12:46:07.079Z,24.90
2018-08-30T12:48:36.291Z,24.60
2018-08-30T12:51:06.456Z,24.70
2018-08-30T12:53:36.031Z,24.70
2018-08-30T12:56:05.445Z,24.50
2018-08-30T12:58:34.793Z,24.50
2018-08-30T13:01:04.228Z,24.30
2018-08-30T13:03:34.280Z,24.40
2018-08-30T13:06:03.711Z,24.60
2018-08-30T13:08:33.276Z,24.80
2018-08-30T13:11:02.831Z,25.50
2018-08-30T13:13:31.894Z,26.00
2018-08-30T13:16:01.163Z,26.00
2018-08-30T13:18:31.064Z,26.40
2018-08-30T13:21:00.871Z,26.00
2018-08-30T13:23:29.987Z,25.60
2018-08-30T13:25:59.206Z,25.60
2018-08-30T13:28:28.479Z,25.80
2018-08-30T13:30:58.032Z,25.70
2018-08-30T13:33:27.462Z,26.30
2018-08-30T13:35:56.618Z,26.40
2018-08-30T13:38:25.987Z,26.30
2018-08-30T13:40:55.477Z,26.20
2018-08-30T13:43:24.503Z,26.00
2018-08-30T13:45:53.812Z,26.40
2018-08-30T13:48:23.664Z,26.40
2018-08-30T13:50:52.834Z,26.60
2018-08-30T13:53:22.289Z,26.60
2018-08-30T13:55:51.857Z,26.30
2018-08-30T13:58:21.909Z,26.10
2018-08-30T14:00:51.297Z,26.20
2018-08-30T14:03:20.037Z,26.10
2018-08-30T14:05:49.166Z,26.10
2018-08-30T14:08:18.559Z,26.20
2018-08-30T14:10:47.846Z,26.10
2018-08-30T14:13:17.181Z,26.10
2018-08-30T14:15:46.031Z,26.00
2018-08-30T14:18:15.246Z,25.80
2018-08-30T14:20:44.435Z,25.90
2018-08-30T14:23:13.894Z,25.80
2018-08-30T14:25:43.231Z,25.80
2018-08-30T14:28:12.538Z,26.00
2018-08-30T14:30:41.810Z,26.10
2018-08-30T14:33:11.346Z,26.00
2018-08-30T14:35:40.720Z,26.00
2018-08-30T14:38:10.802Z,25.90
2018-08-30T14:40:40.050Z,26.00
2018-08-30T14:43:09.594Z,25.70
2018-08-30T14:45:39.131Z,25.50
2018-08-30T14:48:08.540Z,25.80
2018-08-30T14:50:38.159Z,26.00
2018-08-30T14:53:08.146Z,26.00
2018-08-30T14:55:37.529Z,25.90
2018-08-30T14:58:06.750Z,25.90
2018-08-30T15:00:36.240Z,25.60
2018-08-30T15:03:05.455Z,25.40
2018-08-30T15:05:34.906Z,25.40
2018-08-30T15:08:04.180Z,25.10
2018-08-30T15:10:33.689Z,24.70
2018-08-30T15:13:03.263Z,24.60
2018-08-30T15:15:33.569Z,24.60
2018-08-30T15:18:03.719Z,24.40
2018-08-30T15:20:34.547Z,24.40
2018-08-30T15:23:04.113Z,24.50
2018-08-30T15:25:33.821Z,24.60
2018-08-30T15:28:04.248Z,24.50
2018-08-30T15:30:33.632Z,24.40
2018-08-30T15:33:02.819Z,24.40
2018-08-30T15:35:32.043Z,24.10
2018-08-30T15:38:01.788Z,23.90
2018-08-30T15:40:31.341Z,23.60
2018-08-30T15:43:00.480Z,23.50
2018-08-30T15:45:29.969Z,23.20
2018-08-30T15:47:59.365Z,23.30
2018-08-30T15:50:28.480Z,23.20
2018-08-30T15:52:57.717Z,23.00
2018-08-30T15:55:26.953Z,22.80
2018-08-30T15:57:56.580Z,22.60
2018-08-30T16:00:26.161Z,22.40
2018-08-30T16:02:55.537Z,22.50
2018-08-30T16:05:25.441Z,22.20
2018-08-30T16:07:54.512Z,22.00
2018-08-30T16:10:24.044Z,21.90
2018-08-30T16:12:53.498Z,21.70
2018-08-30T16:15:23.351Z,21.60
2018-08-30T16:17:52.900Z,21.50
2018-08-30T16:20:23.428Z,21.20
2018-08-30T16:23:04.033Z,21.00
2018-08-30T16:25:33.820Z,20.90
2018-08-30T16:28:04.360Z,20.70
2018-08-30T16:30:33.991Z,20.70
2018-08-30T16:33:03.409Z,20.40
2018-08-30T16:35:33.060Z,20.30
2018-08-30T16:38:02.455Z,20.40
2018-08-30T16:40:32.584Z,20.50
2018-08-30T16:43:01.846Z,20.60
2018-08-30T16:45:31.789Z,20.40
2018-08-30T16:48:01.003Z,20.30
2018-08-30T16:50:31.423Z,20.40
2018-08-30T16:53:00.824Z,20.20
2018-08-30T16:55:30.027Z,20.20
2018-08-30T16:57:59.479Z,20.20
2018-08-30T17:00:29.127Z,20.10
2018-08-30T17:02:59.311Z,20.00
2018-08-30T17:05:28.941Z,19.90
2018-08-30T17:07:59.554Z,19.70
2018-08-30T17:10:29.204Z,19.60
2018-08-30T17:12:59.724Z,19.60
2018-08-30T17:15:30.166Z,19.60
2018-08-30T17:18:00.006Z,19.50
2018-08-30T17:20:33.720Z,19.50
2018-08-30T17:23:03.315Z,19.40
2018-08-30T17:25:32.813Z,19.30
2018-08-30T17:28:02.392Z,19.10
2018-08-30T17:30:31.612Z,19.00
2018-08-30T17:33:00.700Z,18.80
2018-08-30T17:35:30.311Z,18.60
2018-08-30T17:37:59.396Z,18.60
2018-08-30T17:40:28.766Z,18.60
2018-08-30T17:42:58.829Z,18.50
2018-08-30T17:45:28.073Z,18.50
2018-08-30T17:47:57.096Z,18.40
2018-08-30T17:50:26.637Z,18.30
2018-08-30T17:52:56.060Z,18.10
2018-08-30T17:55:25.341Z,18.10
2018-08-30T17:57:54.633Z,18.00
2018-08-30T18:00:24.172Z,18.00
2018-08-30T18:02:53.194Z,18.00
2018-08-30T18:05:22.808Z,18.00
2018-08-30T18:07:52.139Z,18.00
2018-08-30T18:10:21.309Z,17.90
2018-08-30T18:12:50.628Z,17.90
2018-08-30T18:15:19.921Z,17.90
2018-08-30T18:17:49.084Z,17.70
2018-08-30T18:20:18.491Z,17.60
2018-08-30T18:22:48.094Z,17.70
2018-08-30T18:25:17.312Z,17.60
2018-08-30T18:27:46.842Z,17.60
2018-08-30T18:30:16.050Z,17.60
2018-08-30T18:32:45.326Z,17.60
2018-08-30T18:35:15.082Z,17.60
2018-08-30T18:37:44.230Z,17.60
2018-08-30T18:40:13.969Z,17.50
2018-08-30T18:42:43.662Z,17.40
2018-08-30T18:45:13.269Z,17.40
2018-08-30T18:47:43.021Z,17.30
2018-08-30T18:50:12.769Z,17.30
2018-08-30T18:52:42.194Z,17.30
2018-08-30T18:55:11.549Z,17.40
2018-08-30T18:57:40.937Z,17.30
2018-08-30T19:00:10.662Z,17.30
2018-08-30T19:02:40.096Z,17.30
2018-08-30T19:05:09.220Z,17.30
2018-08-30T19:07:38.566Z,17.30
2018-08-30T19:10:07.882Z,17.20
2018-08-30T19:12:37.451Z,17.10
2018-08-30T19:15:11.916Z,17.00
2018-08-30T19:17:46.568Z,17.10
2018-08-30T19:20:16.502Z,17.00
2018-08-30T19:22:46.077Z,17.00
2018-08-30T19:25:17.066Z,17.00
2018-08-30T19:27:46.475Z,17.10
2018-08-30T19:30:20.887Z,16.90
2018-08-30T19:32:50.377Z,16.90
2018-08-30T19:35:25.014Z,17.00
2018-08-30T19:37:54.358Z,17.00
2018-08-30T19:40:28.633Z,17.10
2018-08-30T19:42:58.646Z,17.20
2018-08-30T19:45:28.797Z,17.20
2018-08-30T19:47:58.560Z,17.10
2018-08-30T19:50:28.686Z,17.10
2018-08-30T19:52:57.810Z,17.20
2018-08-30T19:55:26.897Z,17.30
2018-08-30T19:57:56.183Z,17.30
2018-08-30T20:00:25.720Z,17.10
2018-08-30T20:02:54.844Z,17.00
2018-08-30T20:05:24.097Z,17.00
2018-08-30T20:07:54.592Z,17.00
2018-08-30T20:12:59.804Z,16.90
2018-08-30T20:15:28.937Z,16.80
2018-08-30T20:17:58.168Z,16.80
2018-08-30T20:20:27.522Z,16.70
2018-08-30T20:22:57.114Z,16.70
2018-08-30T20:25:26.526Z,16.60
2018-08-30T20:27:58.320Z,16.60
2018-08-30T20:30:28.783Z,16.60
2018-08-30T20:32:58.331Z,16.70
2018-08-30T20:35:27.484Z,16.80
2018-08-30T20:37:57.881Z,16.80
2018-08-30T20:40:29.056Z,16.90
2018-08-30T20:42:58.250Z,16.90
2018-08-30T20:45:27.964Z,16.80
2018-08-30T20:47:58.035Z,16.80
2018-08-30T20:50:28.483Z,16.80
2018-08-30T20:52:58.961Z,16.80
2018-08-30T20:55:28.110Z,16.90
2018-08-30T20:57:57.344Z,17.00
2018-08-30T21:00:26.696Z,17.00
2018-08-30T21:02:56.158Z,17.00
2018-08-30T21:05:25.436Z,17.10
2018-08-30T21:07:55.334Z,17.10
2018-08-30T21:10:24.774Z,17.10
2018-08-30T21:12:53.959Z,17.00
2018-08-30T21:15:24.092Z,17.00
2018-08-30T21:17:53.363Z,17.00
2018-08-30T21:20:22.570Z,17.00
2018-08-30T21:22:51.823Z,17.10
2018-08-30T21:25:20.902Z,17.10
2018-08-30T21:27:50.314Z,17.10
2018-08-30T21:30:19.818Z,17.10
2018-08-30T21:32:49.164Z,17.10
2018-08-30T21:35:19.125Z,17.10
2018-08-30T21:37:48.858Z,17.20
2018-08-30T21:40:17.953Z,17.20
2018-08-30T21:42:47.442Z,17.30
2018-08-30T21:45:16.715Z,17.30
2018-08-30T21:47:45.877Z,17.30
2018-08-30T21:50:15.404Z,17.30
2018-08-30T21:52:45.213Z,17.30
2018-08-30T21:55:14.559Z,17.20
2018-08-30T21:57:44.247Z,17.20
2018-08-30T22:00:13.565Z,17.20
2018-08-30T22:02:42.979Z,17.20
2018-08-30T22:05:12.391Z,17.30
2018-08-30T22:07:41.796Z,17.30
2018-08-30T22:10:10.964Z,17.20
2018-08-30T22:12:40.402Z,17.30
2018-08-30T22:15:09.693Z,17.20
2018-08-30T22:17:39.043Z,17.20
2018-08-30T22:20:08.976Z,17.20
2018-08-30T22:22:38.255Z,17.20
2018-08-30T22:25:07.508Z,17.20
2018-08-30T22:27:36.816Z,17.20
2018-08-30T22:30:08.129Z,17.20
2018-08-30T22:32:37.594Z,17.10
2018-08-30T22:35:06.511Z,17.00
2018-08-30T22:37:35.975Z,17.10
2018-08-30T22:40:05.268Z,17.10
2018-08-30T22:42:34.447Z,17.10
2018-08-30T22:45:04.483Z,17.20
2018-08-30T22:47:34.101Z,17.20
2018-08-30T22:50:03.480Z,17.20
2018-08-30T22:52:32.913Z,17.20
2018-08-30T22:55:02.134Z,17.20
2018-08-30T22:57:31.547Z,17.10
2018-08-30T23:00:00.830Z,17.20
2018-08-30T23:02:29.970Z,17.30
2018-08-30T23:04:59.246Z,17.30
2018-08-30T23:07:28.451Z,17.30
2018-08-30T23:09:57.617Z,17.30
2018-08-30T23:12:26.700Z,17.20
2018-08-30T23:14:56.001Z,17.30
2018-08-30T23:17:25.187Z,17.30
2018-08-30T23:19:54.279Z,17.30
2018-08-30T23:22:23.492Z,17.10
2018-08-30T23:24:52.757Z,17.20
2018-08-30T23:27:22.009Z,17.30
2018-08-30T23:29:51.368Z,17.30
2018-08-30T23:32:20.918Z,17.30
2018-08-30T23:34:50.681Z,17.30
2018-08-30T23:37:19.818Z,17.30
2018-08-30T23:39:49.348Z,17.40
2018-08-30T23:42:18.665Z,17.30
2018-08-30T23:44:48.475Z,17.30
2018-08-30T23:47:17.904Z,17.20
2018-08-30T23:49:47.171Z,17.20
2018-08-30T23:52:16.669Z,17.10
2018-08-30T23:54:46.259Z,17.10
2018-08-30T23:57:15.684Z,17.00
2018-08-30T23:59:55.699Z,17.00
